Time;durP1;ratioP1;P1;durP2;ratioP2;P2;SDS_P1;SDS_P2;PMS_P1;PMS_P2;Temp;Humidity;BMP_temperature;BMP_pressure;BME280_temperature;BME280_humidity;BME280_pressure;Samples;Min_cycle;Max_cycle;Signal;HPM_P1;HPM_P2
2022/05/15 00:00:41;;;;;;;1999.90;999.90;;;7.70;99.90;;;;;;5013081;28;20041;-73
2022/05/15 00:03:14;;;;;;;1999.90;999.90;;;7.70;99.90;;;;;;4964560;28;20046;-73
2022/05/15 00:05:40;;;;;;;;;;;7.70;99.90;;;;;;4941907;28;20043;-73
2022/05/15 00:08:06;;;;;;;1999.90;999.90;;;7.70;99.90;;;;;;4931399;28;19922;-72
2022/05/15 00:10:32;;;;;;;1999.90;999.90;;;7.60;99.90;;;;;;4978709;28;20047;-73
2022/05/15 00:12:57;;;;;;;1999.90;999.90;;;7.60;99.90;;;;;;4962469;28;20182;-73
2022/05/15 00:15:23;;;;;;;1999.90;999.90;;;7.70;99.90;;;;;;4962265;28;20058;-73
2022/05/15 00:17:48;;;;;;;1999.90;999.90;;;7.70;99.90;;;;;;4948218;28;20041;-73
2022/05/15 00:20:14;;;;;;;1999.90;999.90;;;7.60;99.90;;;;;;4947224;28;20147;-73
2022/05/15 00:22:40;;;;;;;1999.90;999.90;;;7.60;99.90;;;;;;4949696;28;20047;-73
2022/05/15 00:25:06;;;;;;;1999.90;999.90;;;7.50;99.90;;;;;;4954092;28;20043;-73
2022/05/15 00:27:32;;;;;;;1999.90;999.90;;;7.50;99.90;;;;;;4947853;28;20059;-73
2022/05/15 00:29:58;;;;;;;1999.90;999.90;;;7.40;99.90;;;;;;4948505;28;20046;-73
2022/05/15 00:32:23;;;;;;;1999.90;999.90;;;7.40;99.90;;;;;;4947902;28;20560;-73
2022/05/15 00:34:49;;;;;;;1999.90;999.90;;;7.50;99.90;;;;;;4945470;28;20046;-72
2022/05/15 00:37:14;;;;;;;1999.90;999.90;;;7.50;99.90;;;;;;4950379;28;20062;-73
2022/05/15 00:39:40;;;;;;;1999.90;999.90;;;7.50;99.90;;;;;;4965120;28;20039;-73
2022/05/15 00:42:09;;;;;;;1999.90;999.90;;;7.60;99.90;;;;;;4948454;28;20049;-73
2022/05/15 00:44:35;;;;;;;1999.90;999.90;;;7.50;99.90;;;;;;4977650;28;20042;-73
2022/05/15 00:47:01;;;;;;;1999.90;999.90;;;7.50;99.90;;;;;;4965568;28;20058;-73
2022/05/15 00:49:27;;;;;;;1999.90;999.90;;;7.50;99.90;;;;;;4947338;28;20129;-73
2022/05/15 00:52:05;;;;;;;1999.90;999.90;;;7.50;99.90;;;;;;4948058;28;20059;-73
2022/05/15 00:54:45;;;;;;;1999.90;999.90;;;7.50;99.90;;;;;;4949802;28;20467;-73
2022/05/15 00:57:25;;;;;;;1999.90;999.90;;;7.40;99.90;;;;;;4981141;28;20043;-73
2022/05/15 00:59:59;;;;;;;1999.90;999.90;;;7.40;99.90;;;;;;4948264;28;20035;-73
2022/05/15 01:02:28;;;;;;;1999.90;999.90;;;7.30;99.90;;;;;;4965027;28;20423;-73
2022/05/15 01:04:54;;;;;;;1999.90;999.90;;;7.30;99.90;;;;;;4948312;28;20074;-73
2022/05/15 01:07:20;;;;;;;1999.90;999.90;;;7.30;99.90;;;;;;4959431;28;20172;-73
2022/05/15 01:09:46;;;;;;;1999.90;999.90;;;7.30;99.90;;;;;;4955523;28;20061;-73
2022/05/15 01:12:13;;;;;;;1999.90;999.90;;;7.30;99.90;;;;;;4947741;28;20367;-73
2022/05/15 01:14:44;;;;;;;1999.90;999.90;;;7.40;99.90;;;;;;4965349;28;20043;-73
2022/05/15 01:17:10;;;;;;;1999.90;999.90;;;7.40;99.90;;;;;;4939578;28;20441;-73
2022/05/15 01:19:38;;;;;;;1999.90;999.90;;;7.40;99.90;;;;;;4955742;28;20038;-73
2022/05/15 01:22:06;;;;;;;1999.90;999.90;;;7.40;99.90;;;;;;4955687;28;20043;-73
2022/05/15 01:24:32;;;;;;;1999.90;999.90;;;7.40;99.90;;;;;;4978830;28;20157;-73
2022/05/15 01:27:03;;;;;;;1999.90;999.90;;;7.40;99.90;;;;;;4965164;28;20062;-73
2022/05/15 01:29:33;;;;;;;1999.90;999.90;;;7.30;99.90;;;;;;4978432;28;20051;-73
2022/05/15 01:32:00;;;;;;;1999.90;999.90;;;7.30;99.90;;;;;;4980488;28;20050;-73
2022/05/15 01:34:27;;;;;;;1999.90;999.90;;;7.30;99.90;;;;;;4955567;28;20096;-73
2022/05/15 01:36:53;;;;;;;1999.90;999.90;;;7.30;99.90;;;;;;4992422;28;20073;-73
2022/05/15 01:39:18;;;;;;;1999.90;999.90;;;7.20;99.90;;;;;;4966649;28;20051;-73
2022/05/15 01:41:45;;;;;;;1999.90;999.90;;;7.20;99.90;;;;;;4941679;28;20043;-73
2022/05/15 01:44:11;;;;;;;1999.90;999.90;;;7.20;99.90;;;;;;4967380;28;20406;-73
2022/05/15 01:46:37;;;;;;;1999.90;999.90;;;7.20;99.90;;;;;;4943655;28;20122;-73
2022/05/15 01:49:06;;;;;;;1999.90;999.90;;;7.20;99.90;;;;;;4973993;28;20053;-73
2022/05/15 01:51:34;;;;;;;1999.90;999.90;;;7.20;99.90;;;;;;4985968;28;20059;-73
2022/05/15 01:54:01;;;;;;;1999.90;999.90;;;7.20;99.90;;;;;;4938595;28;20392;-73
2022/05/15 01:56:27;;;;;;;1999.90;999.90;;;7.10;99.90;;;;;;4981974;28;20410;-73
2022/05/15 01:58:53;;;;;;;1999.90;999.90;;;7.00;99.90;;;;;;4951428;28;20411;-73
2022/05/15 02:01:19;;;;;;;1999.90;999.90;;;7.00;99.90;;;;;;4949812;28;20077;-73
2022/05/15 02:03:44;;;;;;;1999.90;999.90;;;7.00;99.90;;;;;;4951057;28;20124;-73
2022/05/15 02:06:10;;;;;;;1999.90;999.90;;;7.00;99.90;;;;;;4991415;28;20054;-73
2022/05/15 02:08:37;;;;;;;1999.90;999.90;;;7.00;99.90;;;;;;4981393;28;20052;-73
2022/05/15 02:11:04;;;;;;;1999.90;999.90;;;7.00;99.90;;;;;;4944264;28;20058;-73
2022/05/15 02:13:30;;;;;;;1999.90;999.90;;;7.00;99.90;;;;;;4991544;28;20100;-73
2022/05/15 02:15:56;;;;;;;1999.90;999.90;;;7.00;99.90;;;;;;4950583;28;20050;-73
2022/05/15 02:18:22;;;;;;;1999.90;999.90;;;7.00;99.90;;;;;;4957805;28;20054;-73
2022/05/15 02:20:48;;;;;;;1999.90;999.90;;;7.00;99.90;;;;;;4954039;28;20092;-73
2022/05/15 02:23:14;;;;;;;1999.90;999.90;;;7.00;99.90;;;;;;4984184;28;20399;-73
2022/05/15 02:25:40;;;;;;;1999.90;999.90;;;7.00;99.90;;;;;;4954654;28;20096;-73
2022/05/15 02:28:07;;;;;;;1999.90;999.90;;;6.90;99.90;;;;;;4948573;28;20047;-73
2022/05/15 02:30:32;;;;;;;1999.90;999.90;;;6.90;99.90;;;;;;4949496;28;20053;-73
2022/05/15 02:32:58;;;;;;;1999.90;999.90;;;6.90;99.90;;;;;;4951720;28;20055;-73
2022/05/15 02:35:24;;;;;;;1999.90;999.90;;;6.90;99.90;;;;;;4936128;28;20047;-73
2022/05/15 02:37:49;;;;;;;1999.90;999.90;;;6.90;99.90;;;;;;4968321;28;20039;-73
2022/05/15 02:40:18;;;;;;;1999.90;999.90;;;6.90;99.90;;;;;;4988418;28;20065;-73
2022/05/15 02:42:44;;;;;;;1999.90;999.90;;;6.80;99.90;;;;;;4979661;28;20461;-73
2022/05/15 02:45:11;;;;;;;1999.90;999.90;;;6.80;99.90;;;;;;4964866;28;20133;-73
2022/05/15 02:47:36;;;;;;;1999.90;999.90;;;6.80;99.90;;;;;;4965182;28;20047;-73
2022/05/15 02:52:47;;;;;;;1999.90;999.90;;;6.70;99.90;;;;;;4957319;28;20043;-73
2022/05/15 02:55:14;;;;;;;1999.90;999.90;;;6.70;99.90;;;;;;4944775;28;20080;-73
2022/05/15 02:57:41;;;;;;;1999.90;999.90;;;6.70;99.90;;;;;;4965094;28;20035;-73
2022/05/15 03:00:09;;;;;;;1999.90;999.90;;;6.70;99.90;;;;;;4957019;28;20047;-73
2022/05/15 03:02:37;;;;;;;1999.90;999.90;;;6.70;99.90;;;;;;4986973;28;20048;-73
2022/05/15 03:05:03;;;;;;;1999.90;999.90;;;6.70;99.90;;;;;;4964677;28;20057;-73
2022/05/15 03:07:44;;;;;;;1999.90;999.90;;;6.70;99.90;;;;;;4910127;28;20075;-73
2022/05/15 03:10:13;;;;;;;1999.90;999.90;;;6.70;99.90;;;;;;4880990;28;20044;-73
2022/05/15 03:12:39;;;;;;;1999.90;999.90;;;6.60;99.90;;;;;;4885006;28;20078;-73
2022/05/15 03:15:07;;;;;;;1999.90;999.90;;;6.60;99.90;;;;;;4874465;28;20626;-73
2022/05/15 03:17:34;;;;;;;1999.90;999.90;;;6.60;99.90;;;;;;4880370;28;20044;-73
2022/05/15 03:20:03;;;;;;;1999.90;999.90;;;6.60;99.90;;;;;;4869313;28;20059;-73
2022/05/15 03:22:29;;;;;;;1999.90;999.90;;;6.60;99.90;;;;;;4858798;28;20056;-73
2022/05/15 03:24:54;;;;;;;1999.90;999.90;;;6.50;99.90;;;;;;4884864;29;20083;-73
2022/05/15 03:27:20;;;;;;;1999.90;999.90;;;6.50;99.90;;;;;;4888697;29;20051;-73
2022/05/15 03:29:45;;;;;;;1999.90;999.90;;;6.50;99.90;;;;;;4877616;29;20083;-73
2022/05/15 03:32:11;;;;;;;1999.90;999.90;;;6.50;99.90;;;;;;4889100;28;20051;-73
2022/05/15 03:34:37;;;;;;;1999.90;999.90;;;6.40;99.90;;;;;;4885660;29;20599;-73
2022/05/15 03:37:02;;;;;;;1999.90;999.90;;;6.40;99.90;;;;;;4891563;28;20048;-73
2022/05/15 03:39:28;;;;;;;1999.90;999.90;;;6.50;99.90;;;;;;4876818;29;20060;-73
2022/05/15 03:41:54;;;;;;;1999.90;999.90;;;6.50;99.90;;;;;;4880511;28;20045;-73
2022/05/15 03:44:20;;;;;;;1999.90;999.90;;;6.50;99.90;;;;;;4881914;28;20574;-73
2022/05/15 03:46:46;;;;;;;1999.90;999.90;;;6.50;99.90;;;;;;4943829;28;20582;-73
2022/05/15 03:49:32;;;;;;;1999.90;999.90;;;6.50;99.90;;;;;;4957523;28;20093;-73
2022/05/15 03:51:58;;;;;;;1999.90;999.90;;;6.50;99.90;;;;;;5007012;28;20579;-73
2022/05/15 03:54:24;;;;;;;1999.90;999.90;;;6.60;99.90;;;;;;5024176;28;20111;-73
2022/05/15 03:56:49;;;;;;;1999.90;999.90;;;6.60;99.90;;;;;;5008303;28;20057;-73
2022/05/15 03:59:16;;;;;;;1999.90;999.90;;;6.60;99.90;;;;;;5019117;28;20036;-73
2022/05/15 04:01:42;;;;;;;1999.90;999.90;;;6.60;99.90;;;;;;5000625;28;20133;-73
2022/05/15 04:04:08;;;;;;;1999.90;999.90;;;6.70;99.90;;;;;;5006738;28;20608;-73
2022/05/15 04:06:34;;;;;;;1999.90;999.90;;;6.70;99.90;;;;;;4986199;28;20077;-73
2022/05/15 04:09:00;;;;;;;1999.90;999.90;;;6.70;99.90;;;;;;4990553;28;20085;-73
2022/05/15 04:11:25;;;;;;;1999.90;999.90;;;6.70;99.90;;;;;;5026201;28;20045;-73
2022/05/15 04:13:51;;;;;;;1999.90;999.90;;;6.70;99.90;;;;;;5007702;28;20531;-73
2022/05/15 04:16:16;;;;;;;1999.90;999.90;;;6.70;99.90;;;;;;5007232;28;20049;-73
2022/05/15 04:18:42;;;;;;;1999.90;999.90;;;6.80;99.90;;;;;;5006394;28;20054;-73
2022/05/15 04:21:08;;;;;;;1999.90;999.90;;;6.80;99.90;;;;;;5017089;28;20088;-73
2022/05/15 04:23:35;;;;;;;1999.90;999.90;;;6.80;99.90;;;;;;5005941;28;20042;-73
2022/05/15 04:26:00;;;;;;;1999.90;999.90;;;6.80;99.90;;;;;;4992701;28;20127;-73
2022/05/15 04:28:26;;;;;;;1999.90;999.90;;;6.90;99.90;;;;;;4983495;28;20051;-73
2022/05/15 04:30:52;;;;;;;1999.90;999.90;;;6.90;99.90;;;;;;4961215;28;20120;-73
2022/05/15 04:33:20;;;;;;;1999.90;999.90;;;7.00;99.90;;;;;;4949501;28;20058;-73
2022/05/15 04:35:45;;;;;;;1999.90;999.90;;;7.00;99.90;;;;;;4963270;28;20039;-73
2022/05/15 04:38:11;;;;;;;1999.90;999.90;;;7.10;99.90;;;;;;4948653;28;20092;-73
2022/05/15 04:40:37;;;;;;;1999.90;999.90;;;7.20;99.90;;;;;;4965065;28;20066;-73
2022/05/15 04:43:03;;;;;;;1999.90;999.90;;;7.30;99.90;;;;;;4949986;28;20047;-73
2022/05/15 04:45:29;;;;;;;1999.90;999.90;;;7.40;99.90;;;;;;4982512;28;20117;-73
2022/05/15 04:47:54;;;;;;;1999.90;999.90;;;7.60;99.90;;;;;;4963314;28;20073;-73
2022/05/15 04:50:20;;;;;;;1999.90;999.90;;;7.70;99.90;;;;;;4972348;28;20142;-73
2022/05/15 04:52:46;;;;;;;1999.90;999.90;;;7.80;99.90;;;;;;4947955;28;20043;-73
2022/05/15 04:55:16;;;;;;;1999.90;999.90;;;7.90;99.90;;;;;;4949687;28;20142;-73
2022/05/15 04:57:42;;;;;;;1999.90;999.90;;;8.10;99.90;;;;;;4978450;28;20071;-73
2022/05/15 05:00:16;;;;;;;1999.90;999.90;;;8.30;99.90;;;;;;4988171;28;20038;-73
2022/05/15 05:02:42;;;;;;;1999.90;999.90;;;9.00;99.90;;;;;;4948306;28;20039;-73
2022/05/15 05:05:08;;;;;;;1999.90;999.90;;;9.30;99.90;;;;;;4951401;28;20567;-73
2022/05/15 05:07:34;;;;;;;1999.90;999.90;;;9.20;99.90;;;;;;4978775;28;20400;-73
2022/05/15 05:10:19;;;;;;;1999.90;999.90;;;9.10;99.90;;;;;;4961905;28;20049;-73
2022/05/15 05:12:45;;;;;;;1999.90;999.90;;;9.10;99.90;;;;;;5008732;28;20421;-73
2022/05/15 05:15:12;;;;;;;1999.90;999.90;;;9.10;99.90;;;;;;5003619;28;20058;-73
2022/05/15 05:17:38;;;;;;;1999.90;999.90;;;9.20;99.90;;;;;;5009785;28;20046;-73
2022/05/15 05:20:04;;;;;;;1999.90;999.90;;;9.30;99.90;;;;;;4980858;28;20092;-73
2022/05/15 05:22:30;;;;;;;1999.90;999.90;;;9.40;99.90;;;;;;4985010;28;20041;-73
2022/05/15 05:24:56;;;;;;;1999.90;999.90;;;9.50;99.90;;;;;;4995781;28;20083;-73
2022/05/15 05:27:23;;;;;;;1999.90;999.90;;;9.60;99.90;;;;;;4996658;28;20056;-73
2022/05/15 05:30:12;;;;;;;1999.90;999.90;;;9.80;99.90;;;;;;4999014;28;20559;-73
2022/05/15 05:32:38;;;;;;;1999.90;999.90;;;10.10;99.90;;;;;;4972102;28;20054;-73
2022/05/15 05:35:04;;;;;;;1999.90;999.90;;;11.10;99.90;;;;;;4971848;28;20087;-73
2022/05/15 05:37:30;;;;;;;1999.90;999.90;;;12.10;99.90;;;;;;4971952;28;20058;-73
2022/05/15 05:39:56;;;;;;;1999.90;999.90;;;12.90;99.90;;;;;;4987096;28;20588;-73
2022/05/15 05:42:25;;;;;;;1999.90;999.90;;;13.60;99.90;;;;;;4972619;28;20042;-74
2022/05/15 05:44:54;;;;;;;1999.90;999.90;;;14.20;99.90;;;;;;4972265;28;20486;-74
2022/05/15 05:47:27;;;;;;;1999.90;999.90;;;14.60;99.90;;;;;;4972964;28;20053;-71
2022/05/15 05:49:53;;;;;;;1999.90;999.90;;;15.00;99.90;;;;;;4989049;28;20054;-73
2022/05/15 05:52:19;;;;;;;1999.90;999.90;;;15.50;99.90;;;;;;5043791;28;20063;-73
2022/05/15 05:54:45;;;;;;;1999.90;999.90;;;16.00;99.90;;;;;;4997237;28;20050;-74
2022/05/15 05:57:10;;;;;;;1999.90;999.90;;;16.60;99.90;;;;;;4991761;28;20132;-71
2022/05/15 05:59:36;;;;;;;1999.90;999.90;;;16.80;99.90;;;;;;5002819;28;20070;-72
2022/05/15 06:02:01;;;;;;;1999.90;999.90;;;17.00;99.90;;;;;;5043013;28;20044;-72
2022/05/15 06:04:40;;;;;;;1999.90;999.90;;;17.20;99.90;;;;;;5044151;28;20103;-72
2022/05/15 06:07:06;;;;;;;1999.90;999.90;;;17.60;99.90;;;;;;4987531;28;20050;-72
2022/05/15 06:09:32;;;;;;;1999.90;999.90;;;17.90;99.90;;;;;;4988456;28;20198;-72
2022/05/15 06:11:58;;;;;;;1999.90;999.90;;;17.90;99.90;;;;;;4951464;28;20144;-72
2022/05/15 06:14:24;;;;;;;1999.90;999.90;;;18.20;99.90;;;;;;4937847;28;20036;-72
2022/05/15 06:16:49;;;;;;;1999.90;999.90;;;18.60;99.90;;;;;;4967324;28;20043;-72
2022/05/15 06:19:15;;;;;;;1999.90;999.90;;;18.90;99.90;;;;;;4966471;28;20046;-72
2022/05/15 06:21:40;;;;;;;1999.90;999.90;;;18.80;99.90;;;;;;4966875;28;20046;-72
2022/05/15 06:24:06;;;;;;;1999.90;999.90;;;18.80;99.90;;;;;;4948778;28;20479;-71
2022/05/15 06:26:32;;;;;;;1999.90;999.90;;;19.10;99.90;;;;;;4992673;28;20043;-72
2022/05/15 06:28:58;;;;;;;1999.90;999.90;;;19.40;99.90;;;;;;4936737;28;20481;-71
2022/05/15 06:31:23;;;;;;;1999.90;999.90;;;19.40;99.90;;;;;;4949462;28;20035;-72
2022/05/15 06:33:49;;;;;;;1999.90;999.90;;;19.30;99.90;;;;;;4949730;28;20043;-72
2022/05/15 06:36:15;;;;;;;1999.90;999.90;;;19.50;99.90;;;;;;4966213;28;20505;-72
2022/05/15 06:38:42;;;;;;;1999.90;999.90;;;19.70;99.90;;;;;;4933513;28;20043;-72
2022/05/15 06:41:09;;;;;;;1999.90;999.90;;;19.80;99.90;;;;;;4980446;28;20423;-72
2022/05/15 06:43:35;;;;;;;1999.90;999.90;;;20.10;99.90;;;;;;4969240;28;20058;-72
2022/05/15 06:46:00;;;;;;;1999.90;999.90;;;20.40;99.90;;;;;;4948847;28;20042;-72
2022/05/15 06:48:26;;;;;;;1999.90;999.90;;;20.60;99.90;;;;;;4950344;28;20109;-72
2022/05/15 06:50:51;;;;;;;1999.90;999.90;;;20.60;99.90;;;;;;4948147;28;20115;-72
2022/05/15 06:53:17;;;;;;;1999.90;999.90;;;20.70;99.90;;;;;;4949094;28;20098;-72
2022/05/15 06:58:29;;;;;;;1999.90;999.90;;;20.80;99.90;;;;;;4959858;28;20268;-72
2022/05/15 07:00:55;;;;;;;1999.90;999.90;;;21.30;99.90;;;;;;4931902;28;20043;-72
2022/05/15 07:03:21;;;;;;;1999.90;999.90;;;21.60;99.90;;;;;;4948381;28;20128;-72
2022/05/15 07:05:47;;;;;;;1999.90;999.90;;;21.30;98.50;;;;;;4966324;28;20051;-71
2022/05/15 07:08:15;;;;;;;1999.90;999.90;;;21.40;98.30;;;;;;4987157;28;20473;-72
2022/05/15 07:10:41;;;;;;;1999.90;999.90;;;21.60;99.40;;;;;;4965998;28;20042;-72
2022/05/15 07:13:07;;;;;;;1999.90;999.90;;;21.70;99.10;;;;;;4981977;28;20441;-72
2022/05/15 07:15:32;;;;;;;1999.90;999.90;;;21.90;98.10;;;;;;4962718;28;20101;-72
2022/05/15 07:17:58;;;;;;;1999.90;999.90;;;22.20;97.60;;;;;;4963994;28;20036;-71
2022/05/15 07:20:24;;;;;;;1999.90;999.90;;;22.10;95.70;;;;;;4948632;28;20415;-72
2022/05/15 07:22:49;;;;;;;1999.90;999.90;;;22.10;96.60;;;;;;4965886;28;20043;-72
2022/05/15 07:25:15;;;;;;;1999.90;999.90;;;22.10;94.80;;;;;;4963720;28;20042;-72
2022/05/15 07:27:41;;;;;;;1999.90;999.90;;;22.30;93.90;;;;;;4992471;28;20039;-71
2022/05/15 07:30:08;;;;;;;1999.90;999.90;;;22.10;92.70;;;;;;4949769;28;20509;-72
2022/05/15 07:32:42;;;;;;;1999.90;999.90;;;21.90;92.70;;;;;;4966434;28;20097;-72
2022/05/15 07:35:08;;;;;;;1999.90;999.90;;;21.80;93.10;;;;;;4950150;28;20046;-72
2022/05/15 07:37:34;;;;;;;1999.90;999.90;;;21.40;90.10;;;;;;4941402;28;20043;-72
2022/05/15 07:40:00;;;;;;;1999.90;999.90;;;20.90;90.80;;;;;;4966970;28;20046;-72
2022/05/15 07:42:25;;;;;;;1999.90;999.90;;;20.40;92.70;;;;;;4966657;28;20456;-72
2022/05/15 07:44:54;;;;;;;1999.90;999.90;;;19.90;93.00;;;;;;4966572;28;20046;-71
2022/05/15 07:47:19;;;;;;;1999.90;999.90;;;19.30;93.50;;;;;;4986368;28;20093;-72
2022/05/15 07:49:45;;;;;;;1999.90;999.90;;;19.00;94.90;;;;;;4950033;28;20490;-72
2022/05/15 07:52:11;;;;;;;1999.90;999.90;;;18.70;95.60;;;;;;4964942;28;20057;-72
2022/05/15 07:54:37;;;;;;;1999.90;999.90;;;18.50;96.20;;;;;;4966305;28;20125;-72
2022/05/15 07:57:03;;;;;;;1999.90;999.90;;;18.50;97.20;;;;;;4982230;28;20126;-72
2022/05/15 07:59:29;;;;;;;1999.90;999.90;;;18.50;95.90;;;;;;4964923;28;20078;-72
2022/05/15 08:01:55;;;;;;;1999.90;999.90;;;18.40;96.00;;;;;;4980418;28;20045;-71
2022/05/15 08:04:22;;;;;;;1999.90;999.90;;;18.20;96.40;;;;;;4964690;28;20096;-71
2022/05/15 08:09:32;;;;;;;1999.90;999.90;;;18.10;98.00;;;;;;4962947;28;20055;-72
2022/05/15 08:11:57;;;;;;;1999.90;999.90;;;18.10;97.60;;;;;;4964391;28;20568;-72
2022/05/15 08:14:23;;;;;;;1999.90;999.90;;;18.20;98.30;;;;;;4950007;28;20038;-71
2022/05/15 08:16:48;;;;;;;1999.90;999.90;;;18.20;98.10;;;;;;4944810;28;20035;-72
2022/05/15 08:24:43;;;;;;;1999.90;999.90;;;18.60;97.30;;;;;;4959492;28;20051;-72
2022/05/15 08:27:12;;;;;;;1999.90;999.90;;;19.20;97.50;;;;;;4960129;28;20474;-72
2022/05/15 08:29:38;;;;;;;1999.90;999.90;;;19.90;96.90;;;;;;4937473;28;20050;-72
2022/05/15 08:32:06;;;;;;;1999.90;999.90;;;20.40;95.80;;;;;;4978427;28;20046;-72
2022/05/15 08:34:32;;;;;;;1999.90;999.90;;;20.90;94.70;;;;;;4979680;28;20047;-72
2022/05/15 08:37:00;;;;;;;1999.90;999.90;;;21.50;95.20;;;;;;4986603;28;20039;-72
2022/05/15 08:39:27;;;;;;;1999.90;999.90;;;22.10;94.20;;;;;;4965877;28;20050;-72
2022/05/15 08:42:31;;;;;;;1999.90;999.90;;;22.60;92.10;;;;;;4965088;28;20042;-72
2022/05/15 08:45:00;;;;;;;1999.90;999.90;;;22.80;90.40;;;;;;4957764;28;20061;-72
2022/05/15 08:47:44;;;;;;;1999.90;999.90;;;23.40;91.60;;;;;;4963570;28;20503;-72
2022/05/15 08:50:15;;;;;;;1999.90;999.90;;;23.60;90.60;;;;;;4967831;28;20054;-72
2022/05/15 08:52:58;;;;;;;1999.90;999.90;;;23.70;84.80;;;;;;4951941;28;20053;-71
2022/05/15 08:55:42;;;;;;;1999.90;999.90;;;23.70;82.90;;;;;;4951111;28;20710;-72
2022/05/15 08:58:12;;;;;;;1999.90;999.90;;;23.80;81.70;;;;;;4995485;28;20039;-72
2022/05/15 09:00:41;;;;;;;1999.90;999.90;;;23.80;78.10;;;;;;4968504;28;20126;-72
2022/05/15 09:03:31;;;;;;;1999.90;999.90;;;23.70;75.50;;;;;;4988795;28;20138;-72
2022/05/15 09:06:28;;;;;;;1999.90;999.90;;;23.70;75.60;;;;;;4961915;28;20051;-72
2022/05/15 09:09:06;;;;;;;1999.90;999.90;;;23.80;73.80;;;;;;4957199;28;20138;-72
2022/05/15 09:11:43;;;;;;;1999.90;999.90;;;23.50;71.30;;;;;;4961326;28;20043;-73
2022/05/15 09:14:24;;;;;;;1999.90;999.90;;;23.40;74.30;;;;;;4968989;28;20047;-73
2022/05/15 09:17:03;;;;;;;1999.90;999.90;;;23.50;75.60;;;;;;4947725;28;20088;-73
2022/05/15 09:19:29;;;;;;;1999.90;999.90;;;23.80;74.90;;;;;;4980685;28;20039;-73
2022/05/15 09:21:56;;;;;;;1999.90;999.90;;;24.00;72.80;;;;;;4958382;28;20050;-72
2022/05/15 09:24:40;;;;;;;1999.90;999.90;;;24.00;71.00;;;;;;4951255;28;20059;-72
2022/05/15 09:27:22;;;;;;;1999.90;999.90;;;24.00;69.90;;;;;;4975550;28;20039;-72
2022/05/15 09:29:56;;;;;;;1999.90;999.90;;;24.00;69.90;;;;;;4965484;28;20081;-72
2022/05/15 09:32:35;;;;;;;1999.90;999.90;;;24.40;71.50;;;;;;4978908;28;20287;-72
2022/05/15 09:35:02;;;;;;;1999.90;999.90;;;24.70;69.90;;;;;;4981597;28;20070;-73
2022/05/15 09:40:39;;;;;;;1999.90;999.90;;;24.90;69.10;;;;;;4986697;28;20435;-73
2022/05/15 09:45:55;;;;;;;1999.90;999.90;;;25.30;65.30;;;;;;4968606;28;20493;-72
2022/05/15 09:48:24;;;;;;;1999.90;999.90;;;25.30;68.30;;;;;;4987832;28;20137;-72
2022/05/15 09:50:50;;;;;;;1999.90;999.90;;;25.40;65.50;;;;;;4958767;28;20070;-72
2022/05/15 09:53:25;;;;;;;1999.90;999.90;;;25.40;66.60;;;;;;4997178;28;20088;-73
2022/05/15 09:56:00;;;;;;;1999.90;999.90;;;25.50;63.90;;;;;;5000179;28;20049;-73
2022/05/15 09:58:34;;;;;;;1999.90;999.90;;;25.20;62.20;;;;;;4983680;28;20046;-73
2022/05/15 10:01:12;;;;;;;1999.90;999.90;;;24.80;59.60;;;;;;4968226;28;20440;-72
2022/05/15 10:03:37;;;;;;;1999.90;999.90;;;24.50;62.80;;;;;;4970435;28;20087;-73
2022/05/15 10:06:09;;;;;;;1999.90;999.90;;;24.50;62.50;;;;;;4938240;29;20039;-72
2022/05/15 10:08:36;;;;;;;1999.90;999.90;;;24.50;63.30;;;;;;4965064;28;20047;-72
2022/05/15 10:11:04;;;;;;;1999.90;999.90;;;24.50;62.10;;;;;;4951309;28;20078;-72
2022/05/15 10:13:41;;;;;;;1999.90;999.90;;;24.40;60.10;;;;;;4954842;28;20125;-73
2022/05/15 10:16:17;;;;;;;1999.90;999.90;;;24.10;59.20;;;;;;4941701;28;20050;-73
2022/05/15 10:19:01;;;;;;;1999.90;999.90;;;23.70;58.10;;;;;;4965942;28;20035;-72
2022/05/15 10:21:45;;;;;;;1999.90;999.90;;;23.40;61.00;;;;;;4963400;28;20452;-72
2022/05/15 10:24:31;;;;;;;1999.90;999.90;;;23.30;60.70;;;;;;4948843;29;20125;-73
2022/05/15 10:27:25;;;;;;;1999.90;999.90;;;23.40;62.90;;;;;;4945177;28;20047;-72
2022/05/15 10:30:16;;;;;;;1999.90;999.90;;;23.60;62.60;;;;;;4983315;28;20121;-72
2022/05/15 10:32:48;;;;;;;1999.90;999.90;;;23.70;62.60;;;;;;4989138;28;20045;-73
2022/05/15 10:35:16;;;;;;;1999.90;999.90;;;23.90;60.80;;;;;;4989379;28;20135;-73
2022/05/15 10:38:09;;;;;;;1999.90;999.90;;;23.90;62.70;;;;;;4967825;28;20051;-73
2022/05/15 10:40:39;;;;;;;1999.90;999.90;;;24.00;60.80;;;;;;4950463;28;20039;-72
2022/05/15 10:43:30;;;;;;;1999.90;999.90;;;23.90;59.60;;;;;;4950672;28;20042;-72
2022/05/15 10:46:14;;;;;;;1999.90;999.90;;;24.00;63.50;;;;;;4949819;28;20076;-73
2022/05/15 10:48:59;;;;;;;1999.90;999.90;;;24.20;60.20;;;;;;4990807;28;20105;-72
2022/05/15 10:51:54;;;;;;;1999.90;999.90;;;24.10;61.20;;;;;;4954431;28;20142;-72
2022/05/15 10:57:45;;;;;;;1999.90;999.90;;;24.00;61.30;;;;;;4970440;28;20051;-73
2022/05/15 11:00:33;;;;;;;1999.90;999.90;;;24.10;61.30;;;;;;4951954;28;20138;-73
2022/05/15 11:03:24;;;;;;;1999.90;999.90;;;24.00;60.00;;;;;;4968131;28;20047;-73
2022/05/15 11:06:25;;;;;;;1999.90;999.90;;;24.00;60.40;;;;;;4984720;28;20069;-73
2022/05/15 11:08:57;;;;;;;1999.90;999.90;;;24.10;61.30;;;;;;4950197;28;20550;-73
2022/05/15 11:11:48;;;;;;;1999.90;999.90;;;24.10;59.40;;;;;;4936182;28;20043;-73
2022/05/15 11:14:33;;;;;;;1999.90;999.90;;;24.00;57.80;;;;;;4996851;28;20066;-73
2022/05/15 11:17:06;;;;;;;1999.90;999.90;;;23.90;59.70;;;;;;4957307;28;20068;-73
2022/05/15 11:19:38;;;;;;;1999.90;999.90;;;23.90;58.60;;;;;;4948034;28;20088;-73
2022/05/15 11:22:19;;;;;;;1999.90;999.90;;;23.80;58.80;;;;;;4968100;28;20047;-73
2022/05/15 11:25:04;;;;;;;1999.90;999.90;;;23.80;59.60;;;;;;4982020;28;20038;-73
2022/05/15 11:27:57;;;;;;;1999.90;999.90;;;23.90;59.40;;;;;;4978869;28;20548;-73
2022/05/15 11:30:28;;;;;;;1999.90;999.90;;;24.00;60.40;;;;;;4947225;28;20515;-72
2022/05/15 11:32:54;;;;;;;1999.90;999.90;;;24.20;58.70;;;;;;4950251;28;20050;-73
2022/05/15 11:35:20;;;;;;;1999.90;999.90;;;24.30;59.00;;;;;;4945981;28;20050;-73
2022/05/15 11:38:11;;;;;;;1999.90;999.90;;;24.40;59.20;;;;;;4964160;28;20077;-73
2022/05/15 11:40:44;;;;;;;1999.90;999.90;;;24.40;58.90;;;;;;4978602;28;20043;-73
2022/05/15 11:43:28;;;;;;;;;;;24.20;57.40;;;;;;4950799;28;20399;-73
2022/05/15 11:45:58;;;;;;;1999.90;999.90;;;24.10;58.20;;;;;;4941810;28;20641;-73
2022/05/15 11:48:31;;;;;;;1999.90;999.90;;;24.00;57.80;;;;;;4943396;28;20039;-73
2022/05/15 11:51:25;;;;;;;1999.90;999.90;;;23.90;58.10;;;;;;4931549;28;20063;-73
2022/05/15 11:54:00;;;;;;;1999.90;999.90;;;23.80;58.70;;;;;;4965778;28;20047;-73
2022/05/15 11:56:32;;;;;;;1999.90;999.90;;;23.70;58.00;;;;;;4956229;28;20097;-73
2022/05/15 11:59:00;;;;;;;1999.90;999.90;;;23.50;58.10;;;;;;4976329;28;20449;-72
2022/05/15 12:01:35;;;;;;;1999.90;999.90;;;23.40;57.40;;;;;;4934330;28;20581;-72
2022/05/15 12:04:08;;;;;;;1999.90;999.90;;;23.40;57.60;;;;;;4944797;28;20524;-73
2022/05/15 12:06:46;;;;;;;1999.90;999.90;;;23.40;58.50;;;;;;4958247;28;20035;-73
2022/05/15 12:09:18;;;;;;;1999.90;999.90;;;23.60;59.80;;;;;;4944937;28;20043;-73
2022/05/15 12:11:45;;;;;;;1999.90;999.90;;;23.90;58.70;;;;;;4951000;28;20054;-72
2022/05/15 12:14:26;;;;;;;1999.90;999.90;;;24.00;57.30;;;;;;4930777;28;20487;-73
2022/05/15 12:16:59;;;;;;;1999.90;999.90;;;24.00;58.50;;;;;;4929434;28;20532;-73
2022/05/15 12:19:37;;;;;;;1999.90;999.90;;;24.20;58.20;;;;;;4975906;28;20047;-70
2022/05/15 12:22:11;;;;;;;1999.90;999.90;;;24.40;58.20;;;;;;4937952;28;20038;-72
2022/05/15 12:24:38;;;;;;;1999.90;999.90;;;24.60;57.90;;;;;;4964298;28;20130;-73
2022/05/15 12:27:15;;;;;;;1999.90;999.90;;;24.80;57.90;;;;;;4945740;28;20435;-72
2022/05/15 12:29:47;;;;;;;1999.90;999.90;;;25.00;54.70;;;;;;4957540;28;20738;-72
2022/05/15 12:32:39;;;;;;;1999.90;999.90;;;24.90;56.80;;;;;;4939163;28;21394;-73
2022/05/15 12:35:25;;;;;;;1999.90;999.90;;;25.00;54.80;;;;;;4965549;28;20047;-73
2022/05/15 12:37:57;;;;;;;1999.90;999.90;;;25.00;53.90;;;;;;4965782;28;20043;-73
2022/05/15 12:40:37;;;;;;;1999.90;999.90;;;25.00;54.40;;;;;;4945418;28;20046;-73